Strona główna
METAR-TAF:

METAR-TAF

Lotnisko :

Lima, Ohio, Stany Zjednoczone

Szerokość geograficzna: 40-42-29N, Długość geograficzna: 084-01-17W, wysokość: 297 m

Aktualna obserwacja pogody

Raport powstał 53 minut temu, godzina 20:53 UTC
Wiatr 5 kt z kierunków zmiennych
Temperatura 18°C
Wilgotność 28%
Ciśnienie 1016 hPa
Widzialność: 16.1 km
bezchmurnie

METAR: KAOH 062053Z AUTO VRB05KT 10SM CLR 18/M01 A3001 RMK AO2 SLP166 T01781011 56025

czas: 17:46 (21:46 UTC)


TAF: brakujący

Obserwacja i prognoza pogody dla ponad 4000 lotnisk (raport METAR i TAF).

Dostępne stacje oznaczono żółtymi i czerwonymi punktami na mapie.

Najedź kursorem aby zobaczyć nazwę stacji.

Kliknij aby zobaczyć obserwacje i prognozy pogody.

Aby zmienić mapę: kliknij na zielony przycisk z czarnym krzyżykiem, aby powiększyć; na zielony przycisk z myślnikiem, aby pomniejszyć; na zielone strzałki, aby przejść do map sąsiednich.


METAR-TAF: